Time;durP1;ratioP1;P1;durP2;ratioP2;P2;SDS_P1;SDS_P2;PMS_P1;PMS_P2;Temp;Humidity;BMP_temperature;BMP_pressure;BME280_temperature;BME280_humidity;BME280_pressure;Samples;Min_cycle;Max_cycle;Signal;HPM_P1;HPM_P2
2024/01/03 00:00:02;;;;;;;7.77;1.80;;;10.70;99.90;;;;;;5033782;28;20921;-72
2024/01/03 00:02:28;;;;;;;7.00;1.80;;;10.70;99.90;;;;;;5030690;28;20531;-72
2024/01/03 00:04:53;;;;;;;7.60;2.00;;;10.70;99.90;;;;;;5033378;28;20516;-71
2024/01/03 00:07:19;;;;;;;8.67;2.07;;;10.70;99.90;;;;;;5032498;28;21010;-73
2024/01/03 00:09:45;;;;;;;4.33;1.60;;;10.70;99.90;;;;;;5015189;28;20772;-72
2024/01/03 00:12:19;;;;;;;7.83;2.13;;;10.70;99.90;;;;;;5033205;28;20773;-73
2024/01/03 00:14:45;;;;;;;9.90;2.07;;;10.60;99.90;;;;;;5017306;28;20553;-71
2024/01/03 00:17:10;;;;;;;3.70;1.60;;;10.60;99.90;;;;;;5033010;28;20456;-74
2024/01/03 00:19:39;;;;;;;5.87;1.80;;;10.60;99.90;;;;;;5032615;28;20279;-73
2024/01/03 00:22:13;;;;;;;9.00;1.77;;;10.60;99.90;;;;;;5032210;28;20175;-71
2024/01/03 00:24:48;;;;;;;9.10;1.70;;;10.60;99.90;;;;;;5032358;28;20476;-72
2024/01/03 00:27:16;;;;;;;7.20;3.17;;;10.50;99.90;;;;;;5032163;28;20463;-71
2024/01/03 00:29:52;;;;;;;10.43;2.20;;;10.50;99.90;;;;;;5032629;28;20447;-72
2024/01/03 00:32:20;;;;;;;7.63;1.50;;;10.40;99.90;;;;;;5032126;28;20487;-72
2024/01/03 00:34:46;;;;;;;10.20;2.30;;;10.40;99.90;;;;;;5014201;28;20472;-72
2024/01/03 00:37:33;;;;;;;7.27;1.93;;;10.50;99.90;;;;;;5032607;28;20518;-71
2024/01/03 00:40:02;;;;;;;6.97;2.00;;;10.40;99.90;;;;;;5015146;28;20193;-72
2024/01/03 00:42:28;;;;;;;8.13;2.13;;;10.40;99.90;;;;;;5031118;28;20922;-73
2024/01/03 00:44:54;;;;;;;5.20;1.90;;;10.30;99.90;;;;;;5033209;28;20453;-71
2024/01/03 00:47:20;;;;;;;7.23;1.97;;;10.30;99.90;;;;;;5014041;28;20198;-72
2024/01/03 00:49:47;;;;;;;6.93;2.10;;;10.30;99.90;;;;;;5014776;28;20182;-73
2024/01/03 00:52:15;;;;;;;6.30;1.67;;;10.30;99.90;;;;;;5031398;28;20476;-72
2024/01/03 00:54:40;;;;;;;7.27;1.73;;;10.30;99.90;;;;;;5031706;28;20527;-71
2024/01/03 00:57:07;;;;;;;8.07;2.47;;;10.30;99.90;;;;;;5014585;28;20544;-72
2024/01/03 00:59:37;;;;;;;8.90;2.07;;;10.30;99.90;;;;;;5032329;28;20422;-73
2024/01/03 01:02:04;;;;;;;5.13;1.87;;;10.30;99.90;;;;;;5014848;28;20445;-72
2024/01/03 01:04:31;;;;;;;6.80;1.93;;;10.30;99.90;;;;;;5031800;28;20416;-71
2024/01/03 01:06:57;;;;;;;6.70;2.30;;;10.20;99.90;;;;;;5032858;28;20440;-74
2024/01/03 01:09:23;;;;;;;10.63;3.00;;;10.30;99.90;;;;;;5031538;28;20437;-72
2024/01/03 01:11:48;;;;;;;9.03;1.90;;;10.30;99.90;;;;;;5033394;28;20224;-72
2024/01/03 01:14:14;;;;;;;11.07;2.07;;;10.30;99.90;;;;;;5018617;28;20432;-73
2024/01/03 01:16:40;;;;;;;10.87;2.43;;;10.20;99.90;;;;;;5035378;28;20364;-73
2024/01/03 01:19:06;;;;;;;7.60;3.43;;;10.20;99.90;;;;;;5018264;28;20190;-72
2024/01/03 01:21:32;;;;;;;6.57;2.30;;;10.20;99.90;;;;;;5034782;28;20177;-71
2024/01/03 01:23:58;;;;;;;6.03;1.90;;;10.20;99.90;;;;;;5033636;28;20494;-73
2024/01/03 01:26:23;;;;;;;7.37;1.73;;;10.20;99.90;;;;;;5035184;28;20198;-73
2024/01/03 01:28:49;;;;;;;7.80;1.90;;;10.20;99.90;;;;;;5035665;28;20564;-72
2024/01/03 01:31:15;;;;;;;9.00;2.27;;;10.20;99.90;;;;;;5035549;28;20218;-73
2024/01/03 01:33:40;;;;;;;5.90;2.50;;;10.20;99.90;;;;;;5017315;28;20183;-72
2024/01/03 01:36:06;;;;;;;2.90;1.33;;;10.20;99.90;;;;;;5017650;28;20195;-72
2024/01/03 01:38:32;;;;;;;9.10;2.10;;;10.20;99.90;;;;;;5017591;28;20197;-71
2024/01/03 01:40:57;;;;;;;7.37;1.57;;;10.20;99.90;;;;;;5017951;28;20183;-73
2024/01/03 01:43:23;;;;;;;10.67;1.83;;;10.20;99.90;;;;;;5034808;28;20328;-72
2024/01/03 01:45:49;;;;;;;5.90;1.90;;;10.10;99.90;;;;;;5035296;28;20213;-71
2024/01/03 01:48:19;;;;;;;10.33;2.70;;;10.20;99.90;;;;;;5035503;28;20301;-71
2024/01/03 01:50:45;;;;;;;8.37;1.67;;;10.10;99.90;;;;;;5034818;28;20522;-72
2024/01/03 01:53:12;;;;;;;8.27;1.67;;;10.20;99.90;;;;;;5017934;28;20486;-74
2024/01/03 01:55:39;;;;;;;7.47;2.03;;;10.20;99.90;;;;;;5036235;28;20803;-72
2024/01/03 01:58:07;;;;;;;5.87;1.60;;;10.10;99.90;;;;;;5035761;28;20463;-71
2024/01/03 02:00:32;;;;;;;7.60;1.83;;;10.10;99.90;;;;;;5036630;28;20436;-73
2024/01/03 02:02:58;;;;;;;5.87;1.63;;;10.20;99.90;;;;;;5035549;28;20425;-72
2024/01/03 02:05:24;;;;;;;7.00;1.63;;;10.10;99.90;;;;;;5034253;28;20185;-73
2024/01/03 02:07:50;;;;;;;9.30;3.53;;;10.20;99.90;;;;;;5036346;28;20529;-74
2024/01/03 02:10:15;;;;;;;4.47;1.60;;;10.10;99.90;;;;;;5017924;28;20221;-72
2024/01/03 02:12:41;;;;;;;2.67;1.57;;;10.10;99.90;;;;;;5036356;28;20186;-74
2024/01/03 02:15:07;;;;;;;8.60;2.57;;;10.10;99.90;;;;;;5035661;28;20197;-73
2024/01/03 02:17:36;;;;;;;7.00;1.80;;;10.10;99.90;;;;;;5035911;28;20284;-72
2024/01/03 02:20:02;;;;;;;5.83;2.27;;;10.20;99.90;;;;;;5035974;28;20456;-72
2024/01/03 02:22:31;;;;;;;8.87;1.80;;;10.10;99.90;;;;;;5035456;28;20465;-73
2024/01/03 02:24:57;;;;;;;4.60;1.50;;;10.10;99.90;;;;;;5017399;28;20802;-72
2024/01/03 02:27:22;;;;;;;5.50;1.60;;;10.10;99.90;;;;;;5035693;28;20428;-74
2024/01/03 02:29:48;;;;;;;9.37;1.97;;;10.10;99.90;;;;;;5002532;28;20433;-71
2024/01/03 02:32:14;;;;;;;7.83;2.67;;;10.10;99.90;;;;;;5035187;28;20222;-73
2024/01/03 02:34:40;;;;;;;7.67;2.20;;;10.10;99.90;;;;;;5001360;28;20653;-72
2024/01/03 02:37:09;;;;;;;4.93;2.00;;;10.10;99.90;;;;;;5034861;28;20190;-73
2024/01/03 02:39:35;;;;;;;5.20;1.60;;;10.10;99.90;;;;;;5018078;28;20430;-74
2024/01/03 02:42:00;;;;;;;11.10;2.47;;;10.10;99.90;;;;;;5035255;28;20424;-73
2024/01/03 02:44:27;;;;;;;3.63;1.40;;;10.10;99.90;;;;;;5034946;28;20222;-74
2024/01/03 02:46:54;;;;;;;6.53;2.00;;;10.10;99.90;;;;;;5035203;28;20884;-72
2024/01/03 02:49:20;;;;;;;4.87;1.93;;;10.10;99.90;;;;;;5034142;28;20425;-72
2024/01/03 02:51:46;;;;;;;3.00;1.20;;;10.10;99.90;;;;;;5035166;28;20539;-74
2024/01/03 02:54:11;;;;;;;5.37;2.33;;;10.10;99.90;;;;;;5034799;28;20193;-74
2024/01/03 02:56:39;;;;;;;8.20;1.37;;;10.10;99.90;;;;;;5035155;28;20309;-73
2024/01/03 02:59:04;;;;;;;5.83;1.60;;;10.10;99.90;;;;;;5034350;28;20190;-74
2024/01/03 03:01:30;;;;;;;6.17;1.10;;;10.10;99.90;;;;;;5017061;28;20483;-71
2024/01/03 03:03:56;;;;;;;7.07;1.57;;;10.00;99.90;;;;;;5017241;28;20190;-72
2024/01/03 03:06:21;;;;;;;6.10;1.87;;;10.00;99.90;;;;;;5034519;28;20189;-73
2024/01/03 03:08:47;;;;;;;4.97;1.23;;;10.00;99.90;;;;;;5034923;28;20209;-73
2024/01/03 03:11:13;;;;;;;7.50;1.20;;;10.00;99.90;;;;;;5034284;28;20221;-74
2024/01/03 03:13:38;;;;;;;5.50;1.43;;;10.00;99.90;;;;;;5034592;28;20811;-73
2024/01/03 03:16:07;;;;;;;5.73;1.70;;;10.00;99.90;;;;;;5033367;28;20309;-71
2024/01/03 03:18:33;;;;;;;3.33;1.20;;;10.00;99.90;;;;;;5017072;28;20251;-74
2024/01/03 03:21:00;;;;;;;5.40;1.50;;;10.00;99.90;;;;;;5000768;28;20451;-73
2024/01/03 03:23:26;;;;;;;6.30;1.10;;;10.00;99.90;;;;;;5033195;28;20186;-73
2024/01/03 03:25:52;;;;;;;3.00;1.20;;;10.00;99.90;;;;;;5032035;28;20491;-74
2024/01/03 03:28:18;;;;;;;5.00;2.27;;;10.00;99.90;;;;;;5015753;28;20831;-72
2024/01/03 03:30:43;;;;;;;4.87;0.87;;;10.00;99.90;;;;;;5034733;28;20241;-72
2024/01/03 03:33:09;;;;;;;8.43;1.10;;;10.00;99.90;;;;;;5015041;28;20436;-75
2024/01/03 03:35:35;;;;;;;3.90;1.37;;;10.00;99.90;;;;;;5032996;28;20221;-74
2024/01/03 03:38:00;;;;;;;6.40;1.20;;;10.00;99.90;;;;;;5033982;28;20189;-73
2024/01/03 03:40:26;;;;;;;4.83;1.37;;;10.10;99.90;;;;;;5033981;28;20191;-73
2024/01/03 03:42:52;;;;;;;4.30;1.50;;;10.10;99.90;;;;;;5034222;28;20571;-75
2024/01/03 03:45:17;;;;;;;8.57;1.30;;;10.10;99.90;;;;;;5033178;28;20806;-73
2024/01/03 03:47:43;;;;;;;4.93;1.10;;;10.10;99.90;;;;;;4999842;28;20663;-71
2024/01/03 03:50:09;;;;;;;3.63;1.67;;;10.10;99.90;;;;;;5015463;28;20320;-74
2024/01/03 03:52:35;;;;;;;4.40;1.63;;;10.10;99.90;;;;;;5032709;28;20494;-74
2024/01/03 03:55:01;;;;;;;5.00;1.30;;;10.10;99.90;;;;;;5033178;28;20186;-74
2024/01/03 03:57:27;;;;;;;5.00;1.60;;;10.10;99.90;;;;;;5032669;28;20539;-73
2024/01/03 03:59:52;;;;;;;8.33;1.70;;;10.10;99.90;;;;;;5016206;28;20633;-71
2024/01/03 04:02:18;;;;;;;4.30;1.83;;;10.10;99.90;;;;;;5032972;28;20214;-73
2024/01/03 04:04:44;;;;;;;5.23;1.30;;;10.10;99.90;;;;;;5033661;28;20229;-74
2024/01/03 04:07:09;;;;;;;5.20;1.73;;;10.10;99.90;;;;;;5032807;28;20550;-74
2024/01/03 04:09:36;;;;;;;6.60;1.60;;;10.10;99.90;;;;;;5015813;28;20286;-72
2024/01/03 04:12:02;;;;;;;5.80;1.40;;;10.10;99.90;;;;;;5032525;28;20217;-72
2024/01/03 04:14:28;;;;;;;6.70;1.50;;;10.10;99.90;;;;;;5033536;28;20428;-73
2024/01/03 04:16:53;;;;;;;4.30;1.53;;;10.10;99.90;;;;;;5033006;28;20441;-73
2024/01/03 04:19:19;;;;;;;3.63;1.33;;;10.10;99.90;;;;;;5032846;28;20618;-72
2024/01/03 04:21:45;;;;;;;5.67;1.83;;;10.10;99.90;;;;;;5014271;28;20212;-73
2024/01/03 04:24:11;;;;;;;3.70;1.63;;;10.10;99.90;;;;;;5032049;28;20220;-74
2024/01/03 04:26:37;;;;;;;4.70;1.23;;;10.10;99.90;;;;;;5032506;28;20448;-72
2024/01/03 04:29:03;;;;;;;3.70;1.10;;;10.10;99.90;;;;;;5032590;28;20205;-75
2024/01/03 04:31:28;;;;;;;3.37;1.03;;;10.10;99.90;;;;;;5033173;28;20210;-73
2024/01/03 04:33:54;;;;;;;5.43;1.20;;;10.10;99.90;;;;;;5033042;28;20428;-72
2024/01/03 04:36:20;;;;;;;4.37;1.53;;;10.10;99.90;;;;;;5014812;28;20257;-73
2024/01/03 04:38:45;;;;;;;5.53;1.43;;;10.10;99.90;;;;;;5032016;28;20185;-72
2024/01/03 04:41:11;;;;;;;3.63;1.30;;;10.10;99.90;;;;;;5031283;28;20217;-74
2024/01/03 04:43:37;;;;;;;3.43;1.23;;;10.10;99.90;;;;;;5033002;28;20598;-74
2024/01/03 04:46:03;;;;;;;4.03;1.67;;;10.00;99.90;;;;;;5032062;28;20181;-72
2024/01/03 04:48:28;;;;;;;9.47;2.10;;;10.10;99.90;;;;;;5037028;28;20958;-72
2024/01/03 04:50:54;;;;;;;7.60;1.53;;;10.10;99.90;;;;;;5037008;28;20209;-73
2024/01/03 04:53:19;;;;;;;3.70;1.50;;;10.10;99.90;;;;;;5036592;28;20232;-73
2024/01/03 04:55:45;;;;;;;8.00;1.47;;;10.10;99.90;;;;;;5037248;28;20640;-73
2024/01/03 04:58:11;;;;;;;5.20;1.60;;;10.10;99.90;;;;;;5018074;28;20191;-74
2024/01/03 05:00:36;;;;;;;7.00;1.70;;;10.10;99.90;;;;;;5037354;28;20230;-73
2024/01/03 05:03:02;;;;;;;5.17;1.70;;;10.10;99.90;;;;;;5035948;28;20771;-74
2024/01/03 05:05:28;;;;;;;12.20;2.30;;;10.10;99.90;;;;;;5037012;28;20223;-73
2024/01/03 05:07:54;;;;;;;6.73;1.43;;;10.10;99.90;;;;;;5036471;28;20871;-72
2024/01/03 05:10:20;;;;;;;6.77;1.50;;;10.10;99.90;;;;;;5035996;28;20989;-74
2024/01/03 05:12:46;;;;;;;7.80;1.70;;;10.10;99.90;;;;;;5019513;28;21194;-73
2024/01/03 05:15:12;;;;;;;7.27;1.80;;;10.10;99.90;;;;;;5035597;28;20196;-73
2024/01/03 05:17:37;;;;;;;5.53;2.60;;;10.10;99.90;;;;;;5036695;28;20672;-72
2024/01/03 05:20:04;;;;;;;6.00;1.43;;;10.10;99.90;;;;;;5035942;28;20182;-72
2024/01/03 05:22:31;;;;;;;6.03;1.73;;;10.10;99.90;;;;;;5036327;28;20194;-72
2024/01/03 05:24:56;;;;;;;3.20;1.47;;;10.10;99.90;;;;;;5016836;28;20851;-72
2024/01/03 05:27:23;;;;;;;4.00;1.50;;;10.10;99.90;;;;;;5035983;28;20428;-71
2024/01/03 05:29:49;;;;;;;3.80;1.40;;;10.10;99.90;;;;;;5034336;28;20624;-73
2024/01/03 05:32:15;;;;;;;2.50;1.13;;;10.20;99.90;;;;;;5019938;28;20471;-74
2024/01/03 05:34:40;;;;;;;3.73;1.40;;;10.20;99.90;;;;;;5035390;28;20289;-73
2024/01/03 05:37:06;;;;;;;6.53;1.43;;;10.20;99.90;;;;;;5035068;28;20841;-72
2024/01/03 05:39:32;;;;;;;2.70;1.03;;;10.10;99.90;;;;;;5018323;28;20181;-73
2024/01/03 05:41:57;;;;;;;4.83;1.50;;;10.20;99.90;;;;;;5034419;28;20197;-73
2024/01/03 05:44:23;;;;;;;6.13;1.37;;;10.20;99.90;;;;;;5018013;28;20699;-73
2024/01/03 05:46:49;;;;;;;3.60;1.40;;;10.20;99.90;;;;;;5014598;28;20194;-72
2024/01/03 05:49:14;;;;;;;1.93;1.00;;;10.20;99.90;;;;;;5033622;28;20275;-72
2024/01/03 05:51:40;;;;;;;2.10;1.13;;;10.20;99.90;;;;;;5032822;28;20702;-74
2024/01/03 05:54:06;;;;;;;2.33;0.80;;;10.20;99.90;;;;;;5031698;28;20186;-73
2024/01/03 05:56:31;;;;;;;4.27;1.10;;;10.20;99.90;;;;;;5033251;28;20198;-72
2024/01/03 05:58:57;;;;;;;3.07;1.10;;;10.20;99.90;;;;;;5034288;28;20280;-72
2024/01/03 06:01:23;;;;;;;2.77;0.97;;;10.20;99.90;;;;;;5014394;28;20202;-72
2024/01/03 06:03:49;;;;;;;3.83;1.03;;;10.20;99.90;;;;;;5033491;28;20201;-73
2024/01/03 06:06:16;;;;;;;3.37;0.80;;;10.20;99.90;;;;;;5035085;28;20722;-75
2024/01/03 06:08:42;;;;;;;3.40;1.00;;;10.20;99.90;;;;;;5034395;28;20475;-74
2024/01/03 06:11:09;;;;;;;3.87;1.43;;;10.20;99.90;;;;;;5034555;28;20473;-73
2024/01/03 06:13:34;;;;;;;4.50;1.37;;;10.10;99.90;;;;;;5035704;28;20435;-72
2024/01/03 06:16:00;;;;;;;5.60;1.90;;;10.20;99.90;;;;;;5033746;28;20425;-74
2024/01/03 06:18:26;;;;;;;3.50;1.30;;;10.10;99.90;;;;;;5018210;28;20928;-73
2024/01/03 06:20:51;;;;;;;4.80;1.40;;;10.10;99.90;;;;;;5033672;28;20193;-75
2024/01/03 06:23:17;;;;;;;2.97;1.37;;;10.10;99.90;;;;;;5035551;28;20528;-72
2024/01/03 06:25:43;;;;;;;2.93;1.10;;;10.10;99.90;;;;;;5034132;28;20230;-72
2024/01/03 06:28:08;;;;;;;8.47;1.60;;;10.10;99.90;;;;;;5016636;28;20182;-74
2024/01/03 06:30:35;;;;;;;5.23;2.07;;;10.00;99.90;;;;;;5034497;28;20186;-75
2024/01/03 06:33:01;;;;;;;3.83;2.40;;;10.10;99.90;;;;;;5034632;28;20214;-73
2024/01/03 06:35:26;;;;;;;4.23;2.30;;;10.10;99.90;;;;;;5033330;28;20509;-74
2024/01/03 06:37:52;;;;;;;3.43;1.70;;;10.10;99.90;;;;;;5032943;28;20222;-72
2024/01/03 06:40:18;;;;;;;2.60;1.40;;;10.10;99.90;;;;;;5034644;28;20240;-73
2024/01/03 06:42:43;;;;;;;3.40;1.47;;;10.10;99.90;;;;;;5034349;28;20222;-74
2024/01/03 06:45:09;;;;;;;4.77;1.70;;;10.10;99.90;;;;;;5033542;28;20632;-74
2024/01/03 06:47:35;;;;;;;4.60;1.63;;;10.10;99.90;;;;;;5015913;28;20239;-73
2024/01/03 06:50:01;;;;;;;3.03;1.40;;;10.00;99.90;;;;;;5033866;28;20266;-74
2024/01/03 06:52:26;;;;;;;5.13;1.57;;;10.10;99.90;;;;;;5015913;28;20260;-73
2024/01/03 06:54:54;;;;;;;3.83;1.20;;;10.10;99.90;;;;;;5032391;28;20637;-74
2024/01/03 06:57:19;;;;;;;5.57;1.50;;;10.00;99.90;;;;;;5034895;28;20183;-72
2024/01/03 06:59:45;;;;;;;6.00;1.80;;;10.00;99.90;;;;;;5033711;28;20777;-73
2024/01/03 07:02:12;;;;;;;4.33;1.50;;;10.10;99.90;;;;;;5033138;28;20194;-74
2024/01/03 07:04:37;;;;;;;5.60;1.03;;;10.00;99.90;;;;;;5015039;28;20978;-73
2024/01/03 07:07:03;;;;;;;3.53;1.60;;;10.00;99.90;;;;;;5032656;28;20428;-73
2024/01/03 07:09:29;;;;;;;3.93;1.63;;;10.00;99.90;;;;;;5033026;28;20771;-74
2024/01/03 07:11:54;;;;;;;4.07;2.03;;;10.00;99.90;;;;;;5032275;28;20220;-74
2024/01/03 07:14:20;;;;;;;5.90;1.40;;;10.00;99.90;;;;;;5015462;28;20198;-72
2024/01/03 07:16:46;;;;;;;4.67;1.57;;;10.00;99.90;;;;;;5033041;28;20199;-73
2024/01/03 07:19:11;;;;;;;6.47;1.80;;;10.00;99.90;;;;;;5014363;28;20299;-73
2024/01/03 07:21:37;;;;;;;3.40;1.40;;;9.90;99.90;;;;;;5030421;28;20269;-73
2024/01/03 07:24:03;;;;;;;4.90;1.70;;;9.90;99.90;;;;;;5032031;28;20272;-75
2024/01/03 07:26:28;;;;;;;5.70;1.17;;;10.00;99.90;;;;;;5031697;28;20198;-74
2024/01/03 07:28:54;;;;;;;6.30;1.63;;;10.00;99.90;;;;;;5031121;28;20573;-75
2024/01/03 07:31:20;;;;;;;6.40;2.03;;;9.90;99.90;;;;;;5032450;28;20240;-73
2024/01/03 07:33:46;;;;;;;6.13;2.10;;;9.90;99.90;;;;;;5032479;28;20715;-73
2024/01/03 07:36:12;;;;;;;6.67;2.30;;;9.90;99.90;;;;;;5032412;28;20188;-73
2024/01/03 07:38:44;;;;;;;6.97;1.90;;;9.90;99.90;;;;;;4998013;28;20190;-75
2024/01/03 07:41:11;;;;;;;4.60;1.90;;;9.90;99.90;;;;;;4997975;28;20467;-73
2024/01/03 07:43:37;;;;;;;8.93;2.40;;;9.90;99.90;;;;;;5032172;28;20431;-70
2024/01/03 07:46:04;;;;;;;9.13;2.47;;;9.90;99.90;;;;;;5031785;28;20904;-72
2024/01/03 07:48:30;;;;;;;19.80;4.70;;;9.90;99.90;;;;;;4998560;28;20186;-73
2024/01/03 07:50:56;;;;;;;5.83;2.00;;;9.90;99.90;;;;;;5013653;28;20850;-71
2024/01/03 07:53:21;;;;;;;7.17;2.20;;;9.90;99.90;;;;;;5014707;28;20193;-73
2024/01/03 07:55:47;;;;;;;11.40;2.43;;;9.90;99.90;;;;;;5031542;28;20196;-71
2024/01/03 07:58:13;;;;;;;10.63;2.13;;;9.90;99.90;;;;;;5015251;28;20650;-71
2024/01/03 08:00:39;;;;;;;8.17;2.00;;;9.90;99.90;;;;;;5014646;28;20187;-74
2024/01/03 08:03:05;;;;;;;9.30;2.30;;;9.90;99.90;;;;;;5032310;28;20494;-73
2024/01/03 08:05:32;;;;;;;8.47;2.30;;;9.90;99.90;;;;;;4997840;28;20532;-72
2024/01/03 08:07:58;;;;;;;7.23;2.30;;;9.90;99.90;;;;;;5031006;28;20420;-71
2024/01/03 08:10:24;;;;;;;10.30;2.10;;;9.90;99.90;;;;;;5014302;28;20223;-73
2024/01/03 08:12:49;;;;;;;9.20;2.73;;;9.90;99.90;;;;;;5031447;28;20527;-72
2024/01/03 08:15:15;;;;;;;8.43;2.20;;;9.90;99.90;;;;;;5032699;28;20867;-74
2024/01/03 08:17:43;;;;;;;5.43;1.50;;;9.90;99.90;;;;;;5030482;28;20198;-73
2024/01/03 08:20:10;;;;;;;3.67;1.30;;;9.90;99.90;;;;;;5014319;28;20592;-73
2024/01/03 08:22:36;;;;;;;7.30;2.30;;;9.90;99.90;;;;;;5013672;28;20844;-71
2024/01/03 08:25:03;;;;;;;3.43;1.10;;;9.90;99.90;;;;;;5012983;28;20417;-76
2024/01/03 08:27:32;;;;;;;4.80;1.20;;;9.80;99.90;;;;;;5000154;28;20447;-74
2024/01/03 08:29:59;;;;;;;6.93;1.70;;;9.80;99.90;;;;;;5031371;28;20464;-72
2024/01/03 08:32:26;;;;;;;3.13;1.03;;;9.80;99.90;;;;;;4997912;28;20586;-75
2024/01/03 08:34:52;;;;;;;4.03;1.07;;;9.80;99.90;;;;;;5013118;28;20507;-73
2024/01/03 08:37:18;;;;;;;3.00;0.80;;;9.80;99.90;;;;;;5032959;28;20198;-71
2024/01/03 08:39:44;;;;;;;2.50;0.90;;;9.70;99.90;;;;;;5029682;28;20209;-74
2024/01/03 08:42:09;;;;;;;1.90;0.87;;;9.70;99.90;;;;;;5032057;28;20513;-73
2024/01/03 08:44:35;;;;;;;2.97;0.83;;;9.70;99.90;;;;;;5013344;28;20186;-73
2024/01/03 08:47:02;;;;;;;4.33;1.20;;;9.70;99.90;;;;;;5012382;28;20216;-75
2024/01/03 08:49:29;;;;;;;2.33;0.90;;;9.70;99.90;;;;;;5003533;28;20228;-73
2024/01/03 08:51:56;;;;;;;5.20;1.27;;;9.70;99.90;;;;;;5030681;28;20955;-72
2024/01/03 08:54:24;;;;;;;1.40;0.80;;;9.70;99.90;;;;;;5031485;28;20198;-71
2024/01/03 08:56:50;;;;;;;6.10;1.73;;;9.70;99.90;;;;;;5030486;28;20439;-73
2024/01/03 08:59:16;;;;;;;3.00;1.00;;;9.70;99.90;;;;;;5012371;28;20428;-72
2024/01/03 09:01:42;;;;;;;3.40;1.23;;;9.60;99.90;;;;;;5029588;28;20316;-72
2024/01/03 09:04:08;;;;;;;3.73;0.90;;;9.70;99.90;;;;;;5012925;28;20944;-74
2024/01/03 09:06:35;;;;;;;3.87;1.10;;;9.60;99.90;;;;;;5029264;28;20428;-73
2024/01/03 09:09:01;;;;;;;5.93;1.10;;;9.60;99.90;;;;;;5012883;28;20978;-74
2024/01/03 09:11:28;;;;;;;3.80;1.50;;;9.70;99.90;;;;;;5031769;28;20558;-73
2024/01/03 09:13:56;;;;;;;4.63;1.50;;;9.70;99.90;;;;;;5030234;28;20577;-72
2024/01/03 09:16:26;;;;;;;3.33;1.30;;;9.60;99.90;;;;;;4997973;28;21369;-73
2024/01/03 09:18:52;;;;;;;6.90;1.77;;;9.70;99.90;;;;;;5032123;28;20499;-72
2024/01/03 09:21:18;;;;;;;3.80;1.30;;;9.70;99.90;;;;;;5033109;28;20829;-73
2024/01/03 09:23:43;;;;;;;4.17;1.10;;;9.70;99.90;;;;;;5014438;28;20423;-74
2024/01/03 09:26:10;;;;;;;8.43;1.37;;;9.70;99.90;;;;;;5032549;28;20425;-72
2024/01/03 09:28:38;;;;;;;6.90;2.10;;;9.70;99.90;;;;;;5032234;28;20177;-73
2024/01/03 09:31:05;;;;;;;5.13;1.70;;;9.70;99.90;;;;;;5031695;28;20476;-73
2024/01/03 09:33:30;;;;;;;7.40;1.93;;;9.70;99.90;;;;;;5018068;28;20507;-72
2024/01/03 09:35:56;;;;;;;10.00;2.17;;;9.70;99.90;;;;;;5017579;28;20432;-73
2024/01/03 09:38:22;;;;;;;7.13;1.73;;;9.70;99.90;;;;;;5018246;28;20190;-74
2024/01/03 09:40:49;;;;;;;7.80;1.80;;;9.70;99.90;;;;;;5033965;28;20228;-70
2024/01/03 09:43:15;;;;;;;6.80;2.07;;;9.70;99.90;;;;;;5033642;28;20245;-73
2024/01/03 09:45:41;;;;;;;7.30;1.27;;;9.70;99.90;;;;;;5015251;28;20440;-74
2024/01/03 09:48:09;;;;;;;3.60;1.47;;;9.70;99.90;;;;;;5017350;28;20428;-74
2024/01/03 09:50:35;;;;;;;8.07;1.70;;;9.70;99.90;;;;;;5032946;28;20436;-74
2024/01/03 09:53:03;;;;;;;4.97;1.53;;;9.70;99.90;;;;;;5016464;28;20441;-75
2024/01/03 09:55:29;;;;;;;5.03;1.53;;;9.70;99.90;;;;;;5016869;28;20460;-74
2024/01/03 09:57:55;;;;;;;6.40;1.80;;;9.80;99.90;;;;;;5016114;28;20479;-75
2024/01/03 10:00:23;;;;;;;6.97;1.73;;;9.70;99.90;;;;;;5034804;28;20822;-72
2024/01/03 10:02:50;;;;;;;5.27;1.33;;;9.70;99.90;;;;;;5032515;28;20507;-76
2024/01/03 10:05:19;;;;;;;6.93;1.73;;;9.70;99.90;;;;;;5034696;28;20420;-71
2024/01/03 10:07:45;;;;;;;6.37;2.10;;;9.80;99.90;;;;;;5031973;28;20533;-71
2024/01/03 10:10:11;;;;;;;5.43;1.93;;;9.80;99.90;;;;;;5034824;28;20433;-71
2024/01/03 10:12:37;;;;;;;4.90;2.00;;;9.80;99.90;;;;;;5033166;28;20575;-71
2024/01/03 10:15:18;;;;;;;8.33;2.37;;;9.80;99.90;;;;;;5033838;28;20456;-72
2024/01/03 10:17:45;;;;;;;8.70;2.37;;;9.80;99.90;;;;;;5031773;28;20537;-74
2024/01/03 10:20:24;;;;;;;6.40;1.60;;;9.80;99.90;;;;;;5034628;28;20441;-74
2024/01/03 10:23:02;;;;;;;7.20;1.77;;;9.80;99.90;;;;;;5032625;28;20419;-74
2024/01/03 10:25:28;;;;;;;8.37;2.40;;;9.80;99.90;;;;;;5002272;28;20425;-73
2024/01/03 10:28:01;;;;;;;8.57;1.87;;;9.90;99.90;;;;;;5033819;28;20432;-74
2024/01/03 10:30:27;;;;;;;7.17;2.33;;;9.90;99.90;;;;;;5033789;28;20189;-73
2024/01/03 10:33:07;;;;;;;5.67;1.47;;;9.90;99.90;;;;;;5033875;28;20429;-72
2024/01/03 10:35:35;;;;;;;4.93;1.87;;;10.00;99.90;;;;;;5034896;28;20512;-75
2024/01/03 10:38:01;;;;;;;5.30;2.57;;;10.00;99.90;;;;;;5034978;28;20780;-73
2024/01/03 10:40:34;;;;;;;7.37;1.60;;;10.00;99.90;;;;;;5034800;28;20431;-71
2024/01/03 10:43:02;;;;;;;7.47;1.40;;;10.00;99.90;;;;;;5034083;28;20418;-74
2024/01/03 10:45:27;;;;;;;4.47;1.50;;;10.00;99.90;;;;;;5034229;28;20574;-73
2024/01/03 10:47:53;;;;;;;4.70;1.60;;;10.10;99.90;;;;;;5034889;28;20458;-73
2024/01/03 10:50:20;;;;;;;10.43;1.80;;;10.10;99.90;;;;;;5035640;28;21146;-73
2024/01/03 10:52:46;;;;;;;5.47;1.50;;;10.10;99.90;;;;;;5015631;28;20213;-72
2024/01/03 10:55:20;;;;;;;5.80;1.53;;;10.10;99.90;;;;;;5035102;28;20518;-74
2024/01/03 10:58:07;;;;;;;4.87;1.50;;;10.20;99.90;;;;;;5033601;28;20454;-71
2024/01/03 11:00:58;;;;;;;8.27;2.20;;;10.20;99.90;;;;;;5034434;28;20424;-72
2024/01/03 11:03:41;;;;;;;5.20;2.07;;;10.20;99.90;;;;;;5035218;28;20926;-71
2024/01/03 11:06:22;;;;;;;6.73;1.47;;;10.30;99.90;;;;;;5034878;28;20531;-74
2024/01/03 11:09:01;;;;;;;6.00;2.00;;;10.30;99.90;;;;;;5033959;28;20420;-72
2024/01/03 11:11:34;;;;;;;11.77;1.80;;;10.40;99.90;;;;;;4999332;28;20479;-72
2024/01/03 11:14:02;;;;;;;6.43;1.67;;;10.40;99.90;;;;;;5015997;28;20421;-73
2024/01/03 11:16:40;;;;;;;5.07;2.47;;;10.40;99.90;;;;;;5016287;28;20451;-72
2024/01/03 11:19:08;;;;;;;7.07;1.60;;;10.40;99.90;;;;;;5033951;28;20896;-71
2024/01/03 11:21:36;;;;;;;7.53;2.60;;;10.40;99.90;;;;;;5033544;28;20448;-74
2024/01/03 11:24:20;;;;;;;5.73;1.63;;;10.40;99.90;;;;;;5033727;28;20981;-72
2024/01/03 11:26:52;;;;;;;4.23;2.40;;;10.30;99.90;;;;;;5000133;28;20424;-75
2024/01/03 11:32:08;;;;;;;8.30;2.20;;;10.30;99.90;;;;;;5033055;28;20501;-74
2024/01/03 11:34:50;;;;;;;5.27;1.57;;;10.30;99.90;;;;;;5033572;28;20428;-72
2024/01/03 11:37:18;;;;;;;8.20;2.17;;;10.30;99.90;;;;;;5033308;28;20424;-75
2024/01/03 11:39:46;;;;;;;5.10;1.60;;;10.30;99.90;;;;;;5014875;28;20425;-74
2024/01/03 11:42:38;;;;;;;8.63;2.37;;;10.30;99.90;;;;;;5033710;28;20456;-72
2024/01/03 11:45:11;;;;;;;5.90;2.10;;;10.20;99.90;;;;;;5033154;28;20464;-75
2024/01/03 11:47:42;;;;;;;8.63;2.00;;;10.20;99.90;;;;;;5032851;28;20428;-73
2024/01/03 11:50:12;;;;;;;5.37;2.27;;;10.30;99.90;;;;;;5033144;28;20460;-73
2024/01/03 11:52:40;;;;;;;7.57;1.93;;;10.30;99.90;;;;;;5032397;28;20517;-75
2024/01/03 11:55:10;;;;;;;9.17;2.60;;;10.20;99.90;;;;;;5032960;28;20428;-72
2024/01/03 11:57:47;;;;;;;9.90;2.30;;;10.20;99.90;;;;;;5032237;28;20519;-75
2024/01/03 12:00:16;;;;;;;9.37;2.37;;;10.20;99.90;;;;;;5034159;28;20429;-75
2024/01/03 12:02:56;;;;;;;9.10;2.50;;;10.20;99.90;;;;;;5000728;28;20420;-74
2024/01/03 12:05:26;;;;;;;6.63;2.20;;;10.30;99.90;;;;;;5033400;28;20450;-73
2024/01/03 12:07:54;;;;;;;5.43;1.90;;;10.30;99.90;;;;;;5033008;28;20425;-76
2024/01/03 12:10:20;;;;;;;6.20;2.30;;;10.40;99.90;;;;;;5000839;28;20456;-71
2024/01/03 12:12:46;;;;;;;10.13;2.80;;;10.30;99.90;;;;;;5032244;28;20459;-72
2024/01/03 12:15:27;;;;;;;6.13;2.60;;;10.40;99.90;;;;;;5033834;28;20436;-71
2024/01/03 12:18:02;;;;;;;12.70;2.70;;;10.40;99.90;;;;;;5015381;28;20453;-71
2024/01/03 12:20:28;;;;;;;3.30;1.70;;;10.30;99.90;;;;;;5032665;28;20431;-71
2024/01/03 12:22:53;;;;;;;9.80;2.43;;;10.30;99.90;;;;;;5034555;28;20425;-74
2024/01/03 12:25:26;;;;;;;10.43;3.00;;;10.30;99.90;;;;;;5033683;28;20218;-70
2024/01/03 12:27:58;;;;;;;6.57;1.90;;;10.40;99.90;;;;;;5033995;28;20721;-75
2024/01/03 12:30:24;;;;;;;7.60;2.17;;;10.40;99.90;;;;;;5015763;28;20436;-73
2024/01/03 12:32:51;;;;;;;5.67;2.00;;;10.40;99.90;;;;;;5034778;28;20471;-70
2024/01/03 12:35:16;;;;;;;7.90;1.83;;;10.40;99.90;;;;;;5031888;28;20429;-75
2024/01/03 12:37:46;;;;;;;10.20;1.80;;;10.40;99.90;;;;;;4998893;28;20439;-72
2024/01/03 12:40:15;;;;;;;7.90;1.67;;;10.40;99.90;;;;;;5033163;28;20915;-72
2024/01/03 12:42:45;;;;;;;5.03;1.70;;;10.40;99.90;;;;;;5015484;28;20432;-72
2024/01/03 12:45:11;;;;;;;2.93;1.20;;;10.40;99.90;;;;;;5033875;28;20436;-74
2024/01/03 12:47:37;;;;;;;6.07;1.53;;;10.40;99.90;;;;;;4982786;28;20425;-74
2024/01/03 12:50:03;;;;;;;8.93;1.80;;;10.40;99.90;;;;;;5033739;28;20436;-70